sensor_id;sensor_type;location;lat;lon;timestamp;P1;durP1;ratioP1;P2;durP2;ratioP2
58681;SDS011;44460;40.162;18.294;2022-11-21T00:01:25;4.28;;;1.70;;
58681;SDS011;44460;40.162;18.294;2022-11-21T00:03:51;9.15;;;1.77;;
58681;SDS011;44460;40.162;18.294;2022-11-21T00:06:16;5.43;;;1.50;;
58681;SDS011;44460;40.162;18.294;2022-11-21T00:08:42;5.40;;;1.40;;
58681;SDS011;44460;40.162;18.294;2022-11-21T00:13:59;8.35;;;1.20;;
58681;SDS011;44460;40.162;18.294;2022-11-21T00:16:24;4.28;;;1.42;;
58681;SDS011;44460;40.162;18.294;2022-11-21T00:18:50;5.50;;;1.48;;
58681;SDS011;44460;40.162;18.294;2022-11-21T00:21:16;4.35;;;1.20;;
58681;SDS011;44460;40.162;18.294;2022-11-21T00:23:42;9.60;;;1.77;;
58681;SDS011;44460;40.162;18.294;2022-11-21T00:26:08;5.70;;;1.42;;
58681;SDS011;44460;40.162;18.294;2022-11-21T00:28:34;6.07;;;2.00;;
58681;SDS011;44460;40.162;18.294;2022-11-21T00:30:59;6.47;;;1.90;;
58681;SDS011;44460;40.162;18.294;2022-11-21T00:33:25;5.30;;;1.17;;
58681;SDS011;44460;40.162;18.294;2022-11-21T00:35:50;6.68;;;1.38;;
58681;SDS011;44460;40.162;18.294;2022-11-21T00:38:16;8.07;;;1.30;;
58681;SDS011;44460;40.162;18.294;2022-11-21T00:40:42;9.40;;;1.67;;
58681;SDS011;44460;40.162;18.294;2022-11-21T00:43:07;5.72;;;1.40;;
58681;SDS011;44460;40.162;18.294;2022-11-21T00:45:32;7.80;;;1.67;;
58681;SDS011;44460;40.162;18.294;2022-11-21T00:47:58;7.82;;;1.55;;
58681;SDS011;44460;40.162;18.294;2022-11-21T00:50:23;3.05;;;1.00;;
58681;SDS011;44460;40.162;18.294;2022-11-21T00:52:52;7.28;;;1.58;;
58681;SDS011;44460;40.162;18.294;2022-11-21T00:55:18;8.35;;;1.38;;
58681;SDS011;44460;40.162;18.294;2022-11-21T00:57:43;5.72;;;1.40;;
58681;SDS011;44460;40.162;18.294;2022-11-21T01:00:09;12.05;;;1.60;;
58681;SDS011;44460;40.162;18.294;2022-11-21T01:02:34;5.43;;;1.70;;
58681;SDS011;44460;40.162;18.294;2022-11-21T01:05:00;6.15;;;1.50;;
58681;SDS011;44460;40.162;18.294;2022-11-21T01:07:25;11.68;;;1.60;;
58681;SDS011;44460;40.162;18.294;2022-11-21T01:09:51;12.20;;;1.90;;
58681;SDS011;44460;40.162;18.294;2022-11-21T01:12:16;3.58;;;1.48;;
58681;SDS011;44460;40.162;18.294;2022-11-21T01:14:41;7.15;;;1.42;;
58681;SDS011;44460;40.162;18.294;2022-11-21T01:17:07;3.05;;;1.15;;
58681;SDS011;44460;40.162;18.294;2022-11-21T01:19:32;8.27;;;1.70;;
58681;SDS011;44460;40.162;18.294;2022-11-21T01:21:58;5.38;;;1.45;;
58681;SDS011;44460;40.162;18.294;2022-11-21T01:24:23;4.45;;;1.55;;
58681;SDS011;44460;40.162;18.294;2022-11-21T01:26:48;7.68;;;1.85;;
58681;SDS011;44460;40.162;18.294;2022-11-21T01:29:15;6.43;;;1.63;;
58681;SDS011;44460;40.162;18.294;2022-11-21T01:31:41;5.95;;;1.50;;
58681;SDS011;44460;40.162;18.294;2022-11-21T01:34:06;8.90;;;1.52;;
58681;SDS011;44460;40.162;18.294;2022-11-21T01:36:32;3.72;;;1.30;;
58681;SDS011;44460;40.162;18.294;2022-11-21T01:38:59;6.45;;;1.23;;
58681;SDS011;44460;40.162;18.294;2022-11-21T01:41:26;6.75;;;1.58;;
58681;SDS011;44460;40.162;18.294;2022-11-21T01:43:52;7.10;;;1.30;;
58681;SDS011;44460;40.162;18.294;2022-11-21T01:46:21;5.00;;;1.58;;
58681;SDS011;44460;40.162;18.294;2022-11-21T01:56:32;5.85;;;1.50;;
58681;SDS011;44460;40.162;18.294;2022-11-21T01:58:59;7.88;;;1.55;;
58681;SDS011;44460;40.162;18.294;2022-11-21T02:01:26;6.55;;;1.45;;
58681;SDS011;44460;40.162;18.294;2022-11-21T02:03:51;7.78;;;1.50;;
58681;SDS011;44460;40.162;18.294;2022-11-21T02:06:19;6.88;;;1.80;;
58681;SDS011;44460;40.162;18.294;2022-11-21T02:08:44;5.93;;;1.60;;
58681;SDS011;44460;40.162;18.294;2022-11-21T02:11:15;4.57;;;1.38;;
58681;SDS011;44460;40.162;18.294;2022-11-21T02:13:41;4.70;;;1.42;;
58681;SDS011;44460;40.162;18.294;2022-11-21T02:16:07;5.15;;;1.45;;
58681;SDS011;44460;40.162;18.294;2022-11-21T02:18:33;3.08;;;1.20;;
58681;SDS011;44460;40.162;18.294;2022-11-21T02:21:47;2.42;;;0.95;;
58681;SDS011;44460;40.162;18.294;2022-11-21T02:23:47;4.97;;;1.30;;
58681;SDS011;44460;40.162;18.294;2022-11-21T02:26:14;9.35;;;1.63;;
58681;SDS011;44460;40.162;18.294;2022-11-21T02:28:39;6.30;;;1.23;;
58681;SDS011;44460;40.162;18.294;2022-11-21T02:31:05;4.00;;;1.45;;
58681;SDS011;44460;40.162;18.294;2022-11-21T02:33:30;5.32;;;1.30;;
58681;SDS011;44460;40.162;18.294;2022-11-21T02:35:59;5.40;;;1.17;;
58681;SDS011;44460;40.162;18.294;2022-11-21T02:38:29;3.95;;;1.17;;
58681;SDS011;44460;40.162;18.294;2022-11-21T02:43:46;3.45;;;1.10;;
58681;SDS011;44460;40.162;18.294;2022-11-21T02:46:09;5.10;;;1.20;;
58681;SDS011;44460;40.162;18.294;2022-11-21T02:48:35;5.93;;;1.35;;
58681;SDS011;44460;40.162;18.294;2022-11-21T02:51:01;6.70;;;1.30;;
58681;SDS011;44460;40.162;18.294;2022-11-21T02:53:26;3.85;;;1.10;;
58681;SDS011;44460;40.162;18.294;2022-11-21T02:55:52;3.08;;;1.02;;
58681;SDS011;44460;40.162;18.294;2022-11-21T02:58:18;5.65;;;1.30;;
58681;SDS011;44460;40.162;18.294;2022-11-21T03:00:44;7.00;;;1.30;;
58681;SDS011;44460;40.162;18.294;2022-11-21T03:03:10;5.90;;;1.27;;
58681;SDS011;44460;40.162;18.294;2022-11-21T03:05:36;2.35;;;1.08;;
58681;SDS011;44460;40.162;18.294;2022-11-21T03:08:02;5.13;;;1.30;;
58681;SDS011;44460;40.162;18.294;2022-11-21T03:10:28;5.38;;;1.00;;
58681;SDS011;44460;40.162;18.294;2022-11-21T03:12:53;3.60;;;1.23;;
58681;SDS011;44460;40.162;18.294;2022-11-21T03:15:25;2.97;;;1.10;;
58681;SDS011;44460;40.162;18.294;2022-11-21T03:17:52;4.10;;;1.25;;
58681;SDS011;44460;40.162;18.294;2022-11-21T03:20:18;5.18;;;1.30;;
58681;SDS011;44460;40.162;18.294;2022-11-21T03:22:43;4.90;;;1.30;;
58681;SDS011;44460;40.162;18.294;2022-11-21T03:25:09;4.30;;;1.40;;
58681;SDS011;44460;40.162;18.294;2022-11-21T03:27:34;3.25;;;1.00;;
58681;SDS011;44460;40.162;18.294;2022-11-21T03:30:00;3.60;;;1.20;;
58681;SDS011;44460;40.162;18.294;2022-11-21T03:32:25;2.95;;;1.05;;
58681;SDS011;44460;40.162;18.294;2022-11-21T03:34:50;4.05;;;1.10;;
58681;SDS011;44460;40.162;18.294;2022-11-21T03:37:16;4.05;;;1.33;;
58681;SDS011;44460;40.162;18.294;2022-11-21T03:39:41;2.08;;;0.80;;
58681;SDS011;44460;40.162;18.294;2022-11-21T03:42:07;4.97;;;1.50;;
58681;SDS011;44460;40.162;18.294;2022-11-21T03:44:32;6.25;;;1.40;;
58681;SDS011;44460;40.162;18.294;2022-11-21T03:46:58;6.63;;;2.42;;
58681;SDS011;44460;40.162;18.294;2022-11-21T03:49:23;4.25;;;1.20;;
58681;SDS011;44460;40.162;18.294;2022-11-21T03:51:48;1.75;;;0.82;;
58681;SDS011;44460;40.162;18.294;2022-11-21T03:54:14;6.15;;;1.33;;
58681;SDS011;44460;40.162;18.294;2022-11-21T03:56:39;4.05;;;1.17;;
58681;SDS011;44460;40.162;18.294;2022-11-21T03:59:05;6.30;;;1.13;;
58681;SDS011;44460;40.162;18.294;2022-11-21T04:01:31;6.28;;;1.67;;
58681;SDS011;44460;40.162;18.294;2022-11-21T04:03:56;4.05;;;1.20;;
58681;SDS011;44460;40.162;18.294;2022-11-21T04:06:22;5.22;;;1.40;;
58681;SDS011;44460;40.162;18.294;2022-11-21T04:08:48;6.13;;;1.55;;
58681;SDS011;44460;40.162;18.294;2022-11-21T04:11:13;5.80;;;1.20;;
58681;SDS011;44460;40.162;18.294;2022-11-21T04:13:39;3.83;;;1.05;;
58681;SDS011;44460;40.162;18.294;2022-11-21T04:16:05;5.57;;;1.30;;
58681;SDS011;44460;40.162;18.294;2022-11-21T04:18:30;8.40;;;1.25;;
58681;SDS011;44460;40.162;18.294;2022-11-21T04:20:56;3.65;;;1.25;;
58681;SDS011;44460;40.162;18.294;2022-11-21T04:23:22;6.25;;;1.33;;
58681;SDS011;44460;40.162;18.294;2022-11-21T04:25:47;7.32;;;2.13;;
58681;SDS011;44460;40.162;18.294;2022-11-21T04:28:13;5.13;;;1.30;;
58681;SDS011;44460;40.162;18.294;2022-11-21T04:30:39;4.93;;;1.23;;
58681;SDS011;44460;40.162;18.294;2022-11-21T04:33:04;5.47;;;1.45;;
58681;SDS011;44460;40.162;18.294;2022-11-21T04:35:30;2.40;;;1.10;;
58681;SDS011;44460;40.162;18.294;2022-11-21T04:37:55;5.45;;;1.35;;
58681;SDS011;44460;40.162;18.294;2022-11-21T04:40:20;2.95;;;1.02;;
58681;SDS011;44460;40.162;18.294;2022-11-21T04:42:46;4.25;;;1.17;;
58681;SDS011;44460;40.162;18.294;2022-11-21T04:45:12;5.40;;;1.30;;
58681;SDS011;44460;40.162;18.294;2022-11-21T04:47:38;7.82;;;1.25;;
58681;SDS011;44460;40.162;18.294;2022-11-21T04:50:04;4.38;;;1.20;;
58681;SDS011;44460;40.162;18.294;2022-11-21T04:52:30;4.40;;;1.23;;
58681;SDS011;44460;40.162;18.294;2022-11-21T04:54:55;2.80;;;1.05;;
58681;SDS011;44460;40.162;18.294;2022-11-21T04:57:21;1.75;;;0.80;;
58681;SDS011;44460;40.162;18.294;2022-11-21T04:59:47;3.15;;;1.20;;
58681;SDS011;44460;40.162;18.294;2022-11-21T05:02:12;8.15;;;1.20;;
58681;SDS011;44460;40.162;18.294;2022-11-21T05:04:38;5.75;;;1.20;;
58681;SDS011;44460;40.162;18.294;2022-11-21T05:07:03;4.63;;;1.20;;
58681;SDS011;44460;40.162;18.294;2022-11-21T05:09:29;5.20;;;1.23;;
58681;SDS011;44460;40.162;18.294;2022-11-21T05:11:54;7.13;;;1.73;;
58681;SDS011;44460;40.162;18.294;2022-11-21T05:14:38;4.53;;;1.38;;
58681;SDS011;44460;40.162;18.294;2022-11-21T05:17:04;5.85;;;1.00;;
58681;SDS011;44460;40.162;18.294;2022-11-21T05:19:29;5.43;;;1.27;;
58681;SDS011;44460;40.162;18.294;2022-11-21T05:21:55;3.63;;;1.35;;
58681;SDS011;44460;40.162;18.294;2022-11-21T05:24:20;5.15;;;1.13;;
58681;SDS011;44460;40.162;18.294;2022-11-21T05:26:46;1.90;;;0.90;;
58681;SDS011;44460;40.162;18.294;2022-11-21T05:29:11;4.80;;;1.30;;
58681;SDS011;44460;40.162;18.294;2022-11-21T05:31:37;7.28;;;2.60;;
58681;SDS011;44460;40.162;18.294;2022-11-21T05:34:02;9.82;;;1.70;;
58681;SDS011;44460;40.162;18.294;2022-11-21T05:36:28;5.35;;;1.65;;
58681;SDS011;44460;40.162;18.294;2022-11-21T05:38:53;4.25;;;1.13;;
58681;SDS011;44460;40.162;18.294;2022-11-21T05:41:20;9.68;;;1.60;;
58681;SDS011;44460;40.162;18.294;2022-11-21T05:43:46;5.75;;;1.55;;
58681;SDS011;44460;40.162;18.294;2022-11-21T05:46:18;5.93;;;1.70;;
58681;SDS011;44460;40.162;18.294;2022-11-21T05:48:44;8.63;;;1.67;;
58681;SDS011;44460;40.162;18.294;2022-11-21T05:51:10;11.27;;;1.90;;
58681;SDS011;44460;40.162;18.294;2022-11-21T05:53:35;5.43;;;1.58;;
58681;SDS011;44460;40.162;18.294;2022-11-21T05:56:04;4.30;;;1.73;;
58681;SDS011;44460;40.162;18.294;2022-11-21T05:58:30;5.38;;;1.70;;
58681;SDS011;44460;40.162;18.294;2022-11-21T06:00:56;7.65;;;2.60;;
58681;SDS011;44460;40.162;18.294;2022-11-21T06:03:22;8.52;;;2.58;;
58681;SDS011;44460;40.162;18.294;2022-11-21T06:05:51;16.52;;;5.05;;
58681;SDS011;44460;40.162;18.294;2022-11-21T06:08:16;8.32;;;2.13;;
58681;SDS011;44460;40.162;18.294;2022-11-21T06:10:42;7.10;;;2.55;;
58681;SDS011;44460;40.162;18.294;2022-11-21T06:13:07;14.73;;;2.00;;
58681;SDS011;44460;40.162;18.294;2022-11-21T06:18:13;8.90;;;2.35;;
58681;SDS011;44460;40.162;18.294;2022-11-21T06:20:40;8.35;;;1.95;;
58681;SDS011;44460;40.162;18.294;2022-11-21T06:23:05;8.57;;;1.90;;
58681;SDS011;44460;40.162;18.294;2022-11-21T06:25:31;5.63;;;2.13;;
58681;SDS011;44460;40.162;18.294;2022-11-21T06:27:58;10.20;;;2.17;;
58681;SDS011;44460;40.162;18.294;2022-11-21T06:30:23;14.80;;;5.07;;
58681;SDS011;44460;40.162;18.294;2022-11-21T06:32:48;57.10;;;26.92;;
58681;SDS011;44460;40.162;18.294;2022-11-21T06:35:14;30.35;;;13.45;;
58681;SDS011;44460;40.162;18.294;2022-11-21T06:37:39;18.63;;;7.55;;
58681;SDS011;44460;40.162;18.294;2022-11-21T06:40:05;15.88;;;6.03;;
58681;SDS011;44460;40.162;18.294;2022-11-21T06:42:31;18.40;;;6.20;;
58681;SDS011;44460;40.162;18.294;2022-11-21T06:44:56;17.77;;;6.70;;
58681;SDS011;44460;40.162;18.294;2022-11-21T06:47:22;14.13;;;4.95;;
58681;SDS011;44460;40.162;18.294;2022-11-21T06:49:47;10.15;;;3.10;;
58681;SDS011;44460;40.162;18.294;2022-11-21T06:52:13;14.02;;;3.15;;
58681;SDS011;44460;40.162;18.294;2022-11-21T06:54:38;9.50;;;2.47;;
58681;SDS011;44460;40.162;18.294;2022-11-21T06:57:04;19.70;;;3.45;;
58681;SDS011;44460;40.162;18.294;2022-11-21T06:59:29;9.45;;;2.00;;
58681;SDS011;44460;40.162;18.294;2022-11-21T07:01:55;11.80;;;3.00;;
58681;SDS011;44460;40.162;18.294;2022-11-21T07:04:20;18.75;;;3.10;;
58681;SDS011;44460;40.162;18.294;2022-11-21T07:06:46;15.38;;;2.65;;
58681;SDS011;44460;40.162;18.294;2022-11-21T07:09:11;8.25;;;2.38;;
58681;SDS011;44460;40.162;18.294;2022-11-21T07:11:37;9.77;;;2.30;;
58681;SDS011;44460;40.162;18.294;2022-11-21T07:14:02;11.80;;;1.90;;
58681;SDS011;44460;40.162;18.294;2022-11-21T07:16:27;15.50;;;2.67;;
58681;SDS011;44460;40.162;18.294;2022-11-21T07:18:56;7.70;;;2.05;;
58681;SDS011;44460;40.162;18.294;2022-11-21T07:21:21;8.80;;;3.35;;
58681;SDS011;44460;40.162;18.294;2022-11-21T07:23:46;16.10;;;2.85;;
58681;SDS011;44460;40.162;18.294;2022-11-21T07:26:12;13.07;;;2.40;;
58681;SDS011;44460;40.162;18.294;2022-11-21T07:28:38;14.70;;;2.60;;
58681;SDS011;44460;40.162;18.294;2022-11-21T07:31:04;9.35;;;3.15;;
58681;SDS011;44460;40.162;18.294;2022-11-21T07:33:29;18.55;;;4.47;;
58681;SDS011;44460;40.162;18.294;2022-11-21T07:35:55;12.68;;;4.10;;
58681;SDS011;44460;40.162;18.294;2022-11-21T07:38:24;9.43;;;2.47;;
58681;SDS011;44460;40.162;18.294;2022-11-21T07:40:50;7.00;;;2.22;;
58681;SDS011;44460;40.162;18.294;2022-11-21T07:43:16;9.18;;;2.40;;
58681;SDS011;44460;40.162;18.294;2022-11-21T07:45:43;12.98;;;2.70;;
58681;SDS011;44460;40.162;18.294;2022-11-21T07:48:09;10.00;;;2.42;;
58681;SDS011;44460;40.162;18.294;2022-11-21T07:50:34;8.27;;;2.58;;
58681;SDS011;44460;40.162;18.294;2022-11-21T07:53:01;8.15;;;2.10;;
58681;SDS011;44460;40.162;18.294;2022-11-21T07:55:27;8.13;;;2.25;;
58681;SDS011;44460;40.162;18.294;2022-11-21T07:58:12;6.45;;;1.92;;
58681;SDS011;44460;40.162;18.294;2022-11-21T08:00:39;9.38;;;2.70;;
58681;SDS011;44460;40.162;18.294;2022-11-21T08:03:06;12.98;;;1.85;;
58681;SDS011;44460;40.162;18.294;2022-11-21T08:05:35;5.78;;;1.95;;
58681;SDS011;44460;40.162;18.294;2022-11-21T08:08:01;11.85;;;2.58;;
58681;SDS011;44460;40.162;18.294;2022-11-21T08:10:27;12.32;;;2.45;;
58681;SDS011;44460;40.162;18.294;2022-11-21T08:12:52;9.60;;;2.55;;
58681;SDS011;44460;40.162;18.294;2022-11-21T08:15:18;9.75;;;3.42;;
58681;SDS011;44460;40.162;18.294;2022-11-21T08:17:43;8.63;;;3.70;;
58681;SDS011;44460;40.162;18.294;2022-11-21T08:20:08;11.13;;;2.65;;
58681;SDS011;44460;40.162;18.294;2022-11-21T08:22:40;13.07;;;3.35;;
58681;SDS011;44460;40.162;18.294;2022-11-21T08:25:06;9.43;;;2.65;;
58681;SDS011;44460;40.162;18.294;2022-11-21T08:27:35;8.80;;;2.22;;
58681;SDS011;44460;40.162;18.294;2022-11-21T08:32:28;5.75;;;1.23;;
58681;SDS011;44460;40.162;18.294;2022-11-21T08:34:54;5.10;;;1.48;;
58681;SDS011;44460;40.162;18.294;2022-11-21T08:37:20;5.85;;;1.50;;
58681;SDS011;44460;40.162;18.294;2022-11-21T08:39:47;9.35;;;1.75;;
58681;SDS011;44460;40.162;18.294;2022-11-21T08:42:15;10.82;;;2.03;;
58681;SDS011;44460;40.162;18.294;2022-11-21T08:44:41;5.55;;;1.50;;
58681;SDS011;44460;40.162;18.294;2022-11-21T08:47:07;4.25;;;1.50;;
58681;SDS011;44460;40.162;18.294;2022-11-21T08:49:33;6.18;;;2.08;;
58681;SDS011;44460;40.162;18.294;2022-11-21T08:52:00;7.53;;;2.42;;
58681;SDS011;44460;40.162;18.294;2022-11-21T08:54:27;6.78;;;1.80;;
58681;SDS011;44460;40.162;18.294;2022-11-21T08:56:53;7.47;;;2.47;;
58681;SDS011;44460;40.162;18.294;2022-11-21T08:59:21;6.68;;;2.30;;
58681;SDS011;44460;40.162;18.294;2022-11-21T09:01:50;8.63;;;2.25;;
58681;SDS011;44460;40.162;18.294;2022-11-21T09:04:17;10.77;;;2.00;;
58681;SDS011;44460;40.162;18.294;2022-11-21T09:06:43;7.40;;;2.08;;
58681;SDS011;44460;40.162;18.294;2022-11-21T09:09:10;7.60;;;2.03;;
58681;SDS011;44460;40.162;18.294;2022-11-21T09:11:36;5.93;;;1.67;;
58681;SDS011;44460;40.162;18.294;2022-11-21T09:14:02;4.63;;;1.90;;
58681;SDS011;44460;40.162;18.294;2022-11-21T09:16:47;3.20;;;1.40;;
58681;SDS011;44460;40.162;18.294;2022-11-21T09:19:32;8.52;;;1.45;;
58681;SDS011;44460;40.162;18.294;2022-11-21T09:21:58;13.18;;;1.92;;
58681;SDS011;44460;40.162;18.294;2022-11-21T09:24:25;9.15;;;1.88;;
58681;SDS011;44460;40.162;18.294;2022-11-21T09:26:51;9.73;;;2.03;;
58681;SDS011;44460;40.162;18.294;2022-11-21T09:29:18;6.73;;;1.70;;
58681;SDS011;44460;40.162;18.294;2022-11-21T09:31:46;5.75;;;1.40;;
58681;SDS011;44460;40.162;18.294;2022-11-21T09:34:13;5.57;;;1.60;;
58681;SDS011;44460;40.162;18.294;2022-11-21T09:36:41;7.28;;;2.15;;
58681;SDS011;44460;40.162;18.294;2022-11-21T09:39:07;6.82;;;1.67;;
58681;SDS011;44460;40.162;18.294;2022-11-21T09:46:47;5.63;;;1.63;;
58681;SDS011;44460;40.162;18.294;2022-11-21T09:49:14;8.52;;;1.50;;
58681;SDS011;44460;40.162;18.294;2022-11-21T09:51:41;5.95;;;1.77;;
58681;SDS011;44460;40.162;18.294;2022-11-21T09:56:35;7.05;;;1.83;;
58681;SDS011;44460;40.162;18.294;2022-11-21T10:01:43;9.88;;;2.63;;
58681;SDS011;44460;40.162;18.294;2022-11-21T10:04:09;11.73;;;1.80;;
58681;SDS011;44460;40.162;18.294;2022-11-21T10:06:38;9.15;;;2.25;;
58681;SDS011;44460;40.162;18.294;2022-11-21T10:09:20;15.15;;;2.33;;
58681;SDS011;44460;40.162;18.294;2022-11-21T10:14:40;8.55;;;1.88;;
58681;SDS011;44460;40.162;18.294;2022-11-21T10:19:57;26.63;;;2.72;;
58681;SDS011;44460;40.162;18.294;2022-11-21T10:22:38;20.35;;;2.17;;
58681;SDS011;44460;40.162;18.294;2022-11-21T10:25:23;9.48;;;2.60;;
58681;SDS011;44460;40.162;18.294;2022-11-21T10:28:00;13.50;;;1.95;;
58681;SDS011;44460;40.162;18.294;2022-11-21T10:30:28;14.90;;;8.70;;
58681;SDS011;44460;40.162;18.294;2022-11-21T10:32:56;4.07;;;1.48;;
58681;SDS011;44460;40.162;18.294;2022-11-21T10:35:24;6.72;;;2.35;;
58681;SDS011;44460;40.162;18.294;2022-11-21T10:40:28;8.98;;;3.03;;
58681;SDS011;44460;40.162;18.294;2022-11-21T10:45:46;7.23;;;1.70;;
58681;SDS011;44460;40.162;18.294;2022-11-21T10:48:12;7.13;;;2.00;;
58681;SDS011;44460;40.162;18.294;2022-11-21T10:53:24;10.00;;;2.63;;
58681;SDS011;44460;40.162;18.294;2022-11-21T10:56:10;12.25;;;3.40;;
58681;SDS011;44460;40.162;18.294;2022-11-21T10:58:48;8.98;;;2.40;;
58681;SDS011;44460;40.162;18.294;2022-11-21T11:01:21;8.82;;;3.03;;
58681;SDS011;44460;40.162;18.294;2022-11-21T11:03:59;7.07;;;2.20;;
58681;SDS011;44460;40.162;18.294;2022-11-21T11:06:29;9.73;;;2.85;;
58681;SDS011;44460;40.162;18.294;2022-11-21T11:08:57;7.38;;;3.20;;
58681;SDS011;44460;40.162;18.294;2022-11-21T11:11:24;5.03;;;1.88;;
58681;SDS011;44460;40.162;18.294;2022-11-21T11:13:55;7.32;;;1.95;;
58681;SDS011;44460;40.162;18.294;2022-11-21T11:16:22;9.50;;;2.88;;
58681;SDS011;44460;40.162;18.294;2022-11-21T11:21:23;7.05;;;2.22;;
58681;SDS011;44460;40.162;18.294;2022-11-21T11:26:28;4.88;;;2.03;;
58681;SDS011;44460;40.162;18.294;2022-11-21T11:32:15;8.55;;;2.40;;
58681;SDS011;44460;40.162;18.294;2022-11-21T11:37:04;12.82;;;3.50;;
58681;SDS011;44460;40.162;18.294;2022-11-21T11:42:17;8.30;;;2.72;;
58681;SDS011;44460;40.162;18.294;2022-11-21T11:48:01;8.32;;;2.55;;
58681;SDS011;44460;40.162;18.294;2022-11-21T11:50:40;8.52;;;3.47;;
58681;SDS011;44460;40.162;18.294;2022-11-21T11:53:10;11.40;;;5.13;;
58681;SDS011;44460;40.162;18.294;2022-11-21T12:03:20;11.55;;;4.18;;
58681;SDS011;44460;40.162;18.294;2022-11-21T12:05:55;9.45;;;2.53;;
58681;SDS011;44460;40.162;18.294;2022-11-21T12:08:27;10.18;;;2.10;;
58681;SDS011;44460;40.162;18.294;2022-11-21T12:10:57;9.07;;;2.42;;
58681;SDS011;44460;40.162;18.294;2022-11-21T12:14:04;6.65;;;2.50;;
58681;SDS011;44460;40.162;18.294;2022-11-21T12:16:33;8.75;;;3.40;;
58681;SDS011;44460;40.162;18.294;2022-11-21T12:19:04;9.13;;;2.30;;
58681;SDS011;44460;40.162;18.294;2022-11-21T12:21:37;14.23;;;2.38;;
58681;SDS011;44460;40.162;18.294;2022-11-21T12:24:04;8.50;;;2.42;;
58681;SDS011;44460;40.162;18.294;2022-11-21T12:29:25;10.20;;;5.30;;
58681;SDS011;44460;40.162;18.294;2022-11-21T12:34:37;9.30;;;2.67;;
58681;SDS011;44460;40.162;18.294;2022-11-21T12:39:57;5.95;;;1.98;;
58681;SDS011;44460;40.162;18.294;2022-11-21T12:50:47;9.35;;;4.22;;
58681;SDS011;44460;40.162;18.294;2022-11-21T12:59:04;9.82;;;1.98;;
58681;SDS011;44460;40.162;18.294;2022-11-21T13:04:13;5.25;;;1.60;;
58681;SDS011;44460;40.162;18.294;2022-11-21T13:06:41;6.03;;;2.38;;
58681;SDS011;44460;40.162;18.294;2022-11-21T13:09:08;5.68;;;2.70;;
58681;SDS011;44460;40.162;18.294;2022-11-21T13:11:40;7.05;;;2.38;;
58681;SDS011;44460;40.162;18.294;2022-11-21T13:19:49;7.25;;;2.42;;
58681;SDS011;44460;40.162;18.294;2022-11-21T13:32:46;7.47;;;2.17;;
58681;SDS011;44460;40.162;18.294;2022-11-21T13:48:13;8.95;;;3.00;;
58681;SDS011;44460;40.162;18.294;2022-11-21T13:51:36;10.63;;;4.40;;
58681;SDS011;44460;40.162;18.294;2022-11-21T13:55:58;6.07;;;2.10;;
58681;SDS011;44460;40.162;18.294;2022-11-21T14:01:20;7.53;;;1.95;;
58681;SDS011;44460;40.162;18.294;2022-11-21T14:04:12;6.38;;;1.67;;
58681;SDS011;44460;40.162;18.294;2022-11-21T14:06:44;6.93;;;2.53;;
58681;SDS011;44460;40.162;18.294;2022-11-21T14:09:21;7.05;;;2.45;;
58681;SDS011;44460;40.162;18.294;2022-11-21T14:12:22;6.57;;;2.17;;
58681;SDS011;44460;40.162;18.294;2022-11-21T14:19:53;8.45;;;3.38;;
58681;SDS011;44460;40.162;18.294;2022-11-21T14:22:24;9.20;;;2.35;;
58681;SDS011;44460;40.162;18.294;2022-11-21T14:24:52;8.70;;;2.20;;
58681;SDS011;44460;40.162;18.294;2022-11-21T14:27:26;5.22;;;1.92;;
58681;SDS011;44460;40.162;18.294;2022-11-21T14:29:54;7.38;;;2.38;;
58681;SDS011;44460;40.162;18.294;2022-11-21T14:32:24;8.13;;;2.10;;
58681;SDS011;44460;40.162;18.294;2022-11-21T14:34:51;6.07;;;1.73;;
58681;SDS011;44460;40.162;18.294;2022-11-21T14:37:18;9.68;;;2.65;;
58681;SDS011;44460;40.162;18.294;2022-11-21T14:42:14;4.57;;;1.55;;
58681;SDS011;44460;40.162;18.294;2022-11-21T14:44:40;4.20;;;1.52;;
58681;SDS011;44460;40.162;18.294;2022-11-21T14:47:14;5.88;;;2.33;;
58681;SDS011;44460;40.162;18.294;2022-11-21T14:49:48;6.40;;;2.13;;
58681;SDS011;44460;40.162;18.294;2022-11-21T14:52:17;4.43;;;1.73;;
58681;SDS011;44460;40.162;18.294;2022-11-21T14:54:46;8.32;;;2.08;;
58681;SDS011;44460;40.162;18.294;2022-11-21T14:57:24;8.27;;;2.33;;
58681;SDS011;44460;40.162;18.294;2022-11-21T14:59:51;6.90;;;2.33;;
58681;SDS011;44460;40.162;18.294;2022-11-21T15:02:19;8.18;;;3.15;;
58681;SDS011;44460;40.162;18.294;2022-11-21T15:04:47;10.48;;;1.70;;
58681;SDS011;44460;40.162;18.294;2022-11-21T15:07:20;8.02;;;2.45;;
58681;SDS011;44460;40.162;18.294;2022-11-21T15:09:47;4.78;;;2.25;;
58681;SDS011;44460;40.162;18.294;2022-11-21T15:12:26;6.70;;;2.45;;
58681;SDS011;44460;40.162;18.294;2022-11-21T15:15:03;11.77;;;3.72;;
58681;SDS011;44460;40.162;18.294;2022-11-21T15:17:31;8.30;;;2.75;;
58681;SDS011;44460;40.162;18.294;2022-11-21T15:22:37;6.72;;;3.00;;
58681;SDS011;44460;40.162;18.294;2022-11-21T15:25:05;9.88;;;4.28;;
58681;SDS011;44460;40.162;18.294;2022-11-21T15:27:32;13.27;;;5.00;;
58681;SDS011;44460;40.162;18.294;2022-11-21T15:30:02;14.60;;;5.03;;
58681;SDS011;44460;40.162;18.294;2022-11-21T15:32:29;13.07;;;5.40;;
58681;SDS011;44460;40.162;18.294;2022-11-21T15:34:56;10.18;;;5.18;;
58681;SDS011;44460;40.162;18.294;2022-11-21T15:37:23;10.85;;;4.32;;
58681;SDS011;44460;40.162;18.294;2022-11-21T15:39:52;10.68;;;4.97;;
58681;SDS011;44460;40.162;18.294;2022-11-21T15:44:59;19.88;;;10.05;;
58681;SDS011;44460;40.162;18.294;2022-11-21T15:47:25;22.87;;;11.53;;
58681;SDS011;44460;40.162;18.294;2022-11-21T15:49:53;31.60;;;15.80;;
58681;SDS011;44460;40.162;18.294;2022-11-21T15:52:20;73.47;;;31.95;;
58681;SDS011;44460;40.162;18.294;2022-11-21T15:54:46;50.45;;;25.08;;
58681;SDS011;44460;40.162;18.294;2022-11-21T15:57:12;49.53;;;25.13;;
58681;SDS011;44460;40.162;18.294;2022-11-21T15:59:40;26.83;;;13.60;;
58681;SDS011;44460;40.162;18.294;2022-11-21T16:02:08;28.08;;;15.00;;
58681;SDS011;44460;40.162;18.294;2022-11-21T16:04:35;37.05;;;16.58;;
58681;SDS011;44460;40.162;18.294;2022-11-21T16:07:01;37.40;;;18.17;;
58681;SDS011;44460;40.162;18.294;2022-11-21T16:09:27;44.95;;;19.67;;
58681;SDS011;44460;40.162;18.294;2022-11-21T16:11:53;33.17;;;17.77;;
58681;SDS011;44460;40.162;18.294;2022-11-21T16:14:20;35.40;;;19.83;;
58681;SDS011;44460;40.162;18.294;2022-11-21T16:16:47;28.73;;;18.38;;
58681;SDS011;44460;40.162;18.294;2022-11-21T16:19:13;58.05;;;26.70;;
58681;SDS011;44460;40.162;18.294;2022-11-21T16:24:06;50.50;;;23.83;;
58681;SDS011;44460;40.162;18.294;2022-11-21T16:26:33;41.22;;;20.92;;
58681;SDS011;44460;40.162;18.294;2022-11-21T16:28:59;35.33;;;19.95;;
58681;SDS011;44460;40.162;18.294;2022-11-21T16:31:27;44.70;;;24.30;;
58681;SDS011;44460;40.162;18.294;2022-11-21T16:33:53;38.67;;;20.80;;
58681;SDS011;44460;40.162;18.294;2022-11-21T16:36:20;37.08;;;19.92;;
58681;SDS011;44460;40.162;18.294;2022-11-21T16:38:47;42.22;;;24.67;;
58681;SDS011;44460;40.162;18.294;2022-11-21T16:41:18;40.42;;;23.98;;
58681;SDS011;44460;40.162;18.294;2022-11-21T16:43:45;44.65;;;26.23;;
58681;SDS011;44460;40.162;18.294;2022-11-21T16:46:12;34.47;;;19.05;;
58681;SDS011;44460;40.162;18.294;2022-11-21T16:48:39;42.83;;;24.15;;
58681;SDS011;44460;40.162;18.294;2022-11-21T16:53:36;24.20;;;14.73;;
58681;SDS011;44460;40.162;18.294;2022-11-21T16:56:02;25.80;;;14.82;;
58681;SDS011;44460;40.162;18.294;2022-11-21T16:58:28;31.52;;;19.88;;